sensor_id;sensor_type;location;lat;lon;timestamp;pressure;altitude;pressure_sealevel;temperature;humidity
81162;BME280;70638;-33.792;151.032;2023-12-20T00:00:09;100843.91;;;16.92;100.00
81162;BME280;70638;-33.792;151.032;2023-12-20T00:02:39;100854.20;;;16.92;100.00
81162;BME280;70638;-33.792;151.032;2023-12-20T00:05:10;100852.05;;;16.89;100.00
81162;BME280;70638;-33.792;151.032;2023-12-20T00:07:52;100852.67;;;16.87;100.00
81162;BME280;70638;-33.792;151.032;2023-12-20T00:10:12;100856.92;;;16.95;100.00
81162;BME280;70638;-33.792;151.032;2023-12-20T00:12:41;100863.45;;;16.94;100.00
81162;BME280;70638;-33.792;151.032;2023-12-20T00:15:14;100863.72;;;16.98;100.00
81162;BME280;70638;-33.792;151.032;2023-12-20T00:17:49;100867.80;;;16.95;100.00
81162;BME280;70638;-33.792;151.032;2023-12-20T00:20:13;100868.05;;;16.90;100.00
81162;BME280;70638;-33.792;151.032;2023-12-20T00:22:47;100863.62;;;16.85;100.00
81162;BME280;70638;-33.792;151.032;2023-12-20T00:25:20;100859.28;;;16.91;100.00
81162;BME280;70638;-33.792;151.032;2023-12-20T00:27:46;100855.30;;;16.88;100.00
81162;BME280;70638;-33.792;151.032;2023-12-20T00:30:19;100852.75;;;16.91;100.00
81162;BME280;70638;-33.792;151.032;2023-12-20T00:32:52;100846.90;;;16.95;100.00
81162;BME280;70638;-33.792;151.032;2023-12-20T00:35:16;100851.07;;;16.95;100.00
81162;BME280;70638;-33.792;151.032;2023-12-20T00:37:50;100846.97;;;16.96;100.00
81162;BME280;70638;-33.792;151.032;2023-12-20T00:40:22;100845.37;;;17.04;100.00
81162;BME280;70638;-33.792;151.032;2023-12-20T00:42:55;100845.10;;;16.99;100.00
81162;BME280;70638;-33.792;151.032;2023-12-20T00:45:20;100841.89;;;16.98;100.00
81162;BME280;70638;-33.792;151.032;2023-12-20T00:47:50;100840.28;;;17.01;100.00
81162;BME280;70638;-33.792;151.032;2023-12-20T00:50:21;100836.11;;;16.99;100.00
81162;BME280;70638;-33.792;151.032;2023-12-20T00:52:51;100838.64;;;16.94;100.00
81162;BME280;70638;-33.792;151.032;2023-12-20T00:55:22;100834.84;;;16.98;100.00
81162;BME280;70638;-33.792;151.032;2023-12-20T00:57:52;100834.41;;;16.96;100.00
81162;BME280;70638;-33.792;151.032;2023-12-20T01:00:23;100839.52;;;17.03;100.00
81162;BME280;70638;-33.792;151.032;2023-12-20T01:02:54;100837.89;;;16.98;100.00
81162;BME280;70638;-33.792;151.032;2023-12-20T01:05:26;100840.62;;;16.95;100.00
81162;BME280;70638;-33.792;151.032;2023-12-20T01:07:55;100834.73;;;16.97;100.00
81162;BME280;70638;-33.792;151.032;2023-12-20T01:10:25;100835.27;;;17.05;100.00
81162;BME280;70638;-33.792;151.032;2023-12-20T01:12:55;100832.55;;;17.08;100.00
81162;BME280;70638;-33.792;151.032;2023-12-20T01:15:26;100839.34;;;16.98;100.00
81162;BME280;70638;-33.792;151.032;2023-12-20T01:17:56;100838.91;;;16.95;100.00
81162;BME280;70638;-33.792;151.032;2023-12-20T01:20:27;100836.27;;;16.88;100.00
81162;BME280;70638;-33.792;151.032;2023-12-20T01:22:58;100839.16;;;16.82;100.00
81162;BME280;70638;-33.792;151.032;2023-12-20T01:25:29;100844.48;;;16.81;100.00
81162;BME280;70638;-33.792;151.032;2023-12-20T01:27:59;100849.08;;;16.86;100.00
81162;BME280;70638;-33.792;151.032;2023-12-20T01:30:30;100844.16;;;16.92;100.00
81162;BME280;70638;-33.792;151.032;2023-12-20T01:33:01;100850.62;;;16.88;100.00
81162;BME280;70638;-33.792;151.032;2023-12-20T01:35:32;100850.53;;;16.82;100.00
81162;BME280;70638;-33.792;151.032;2023-12-20T01:38:03;100850.11;;;16.59;100.00
81162;BME280;70638;-33.792;151.032;2023-12-20T01:40:33;100845.05;;;16.63;100.00
81162;BME280;70638;-33.792;151.032;2023-12-20T01:43:09;100838.98;;;16.59;100.00
81162;BME280;70638;-33.792;151.032;2023-12-20T01:45:34;100835.00;;;16.62;100.00
81162;BME280;70638;-33.792;151.032;2023-12-20T01:48:06;100833.62;;;16.57;100.00
81162;BME280;70638;-33.792;151.032;2023-12-20T01:50:41;100831.47;;;16.69;100.00
81162;BME280;70638;-33.792;151.032;2023-12-20T01:53:08;100831.30;;;16.44;100.00
81162;BME280;70638;-33.792;151.032;2023-12-20T01:55:39;100830.20;;;16.43;100.00
81162;BME280;70638;-33.792;151.032;2023-12-20T01:58:12;100833.36;;;16.45;100.00
81162;BME280;70638;-33.792;151.032;2023-12-20T02:00:41;100837.45;;;16.47;100.00
81162;BME280;70638;-33.792;151.032;2023-12-20T02:03:07;100838.95;;;16.43;100.00
81162;BME280;70638;-33.792;151.032;2023-12-20T02:05:38;100835.16;;;16.50;100.00
81162;BME280;70638;-33.792;151.032;2023-12-20T02:08:11;100829.72;;;16.48;100.00
81162;BME280;70638;-33.792;151.032;2023-12-20T02:10:41;100835.09;;;16.52;100.00
81162;BME280;70638;-33.792;151.032;2023-12-20T02:13:09;100835.16;;;16.47;100.00
81162;BME280;70638;-33.792;151.032;2023-12-20T02:15:40;100832.92;;;16.46;100.00
81162;BME280;70638;-33.792;151.032;2023-12-20T02:18:09;100832.33;;;16.43;100.00
81162;BME280;70638;-33.792;151.032;2023-12-20T02:20:40;100833.19;;;16.46;100.00
81162;BME280;70638;-33.792;151.032;2023-12-20T02:23:11;100835.12;;;16.37;100.00
81162;BME280;70638;-33.792;151.032;2023-12-20T02:25:42;100836.05;;;16.41;100.00
81162;BME280;70638;-33.792;151.032;2023-12-20T02:28:13;100833.84;;;16.34;100.00
81162;BME280;70638;-33.792;151.032;2023-12-20T02:30:43;100834.08;;;16.32;100.00
81162;BME280;70638;-33.792;151.032;2023-12-20T02:33:15;100835.62;;;16.38;100.00
81162;BME280;70638;-33.792;151.032;2023-12-20T02:35:45;100832.00;;;16.45;100.00
81162;BME280;70638;-33.792;151.032;2023-12-20T02:38:15;100832.16;;;16.46;100.00
81162;BME280;70638;-33.792;151.032;2023-12-20T02:40:46;100830.30;;;16.49;100.00
81162;BME280;70638;-33.792;151.032;2023-12-20T02:43:17;100836.92;;;16.49;100.00
81162;BME280;70638;-33.792;151.032;2023-12-20T02:45:48;100826.72;;;16.38;100.00
81162;BME280;70638;-33.792;151.032;2023-12-20T02:48:18;100829.09;;;16.38;100.00
81162;BME280;70638;-33.792;151.032;2023-12-20T02:50:50;100830.12;;;16.39;100.00
81162;BME280;70638;-33.792;151.032;2023-12-20T02:53:20;100827.53;;;16.23;100.00
81162;BME280;70638;-33.792;151.032;2023-12-20T02:55:51;100823.88;;;16.24;100.00
81162;BME280;70638;-33.792;151.032;2023-12-20T02:58:22;100826.09;;;16.26;100.00
81162;BME280;70638;-33.792;151.032;2023-12-20T03:00:51;100822.95;;;16.33;100.00
81162;BME280;70638;-33.792;151.032;2023-12-20T03:03:22;100821.28;;;16.34;100.00
81162;BME280;70638;-33.792;151.032;2023-12-20T03:05:59;100813.84;;;16.47;100.00
81162;BME280;70638;-33.792;151.032;2023-12-20T03:08:27;100815.69;;;16.46;100.00
81162;BME280;70638;-33.792;151.032;2023-12-20T03:10:56;100816.88;;;16.44;100.00
81162;BME280;70638;-33.792;151.032;2023-12-20T03:13:24;100815.62;;;16.41;100.00
81162;BME280;70638;-33.792;151.032;2023-12-20T03:15:54;100820.79;;;16.43;100.00
81162;BME280;70638;-33.792;151.032;2023-12-20T03:18:33;100819.54;;;16.47;100.00
81162;BME280;70638;-33.792;151.032;2023-12-20T03:20:55;100816.72;;;16.39;100.00
81162;BME280;70638;-33.792;151.032;2023-12-20T03:23:30;100821.31;;;16.41;100.00
81162;BME280;70638;-33.792;151.032;2023-12-20T03:25:56;100823.75;;;16.43;100.00
81162;BME280;70638;-33.792;151.032;2023-12-20T03:28:32;100818.92;;;16.40;100.00
81162;BME280;70638;-33.792;151.032;2023-12-20T03:30:57;100822.64;;;16.41;100.00
81162;BME280;70638;-33.792;151.032;2023-12-20T03:33:28;100816.96;;;16.43;100.00
81162;BME280;70638;-33.792;151.032;2023-12-20T03:35:58;100812.44;;;16.57;100.00
81162;BME280;70638;-33.792;151.032;2023-12-20T03:38:29;100814.13;;;16.67;100.00
81162;BME280;70638;-33.792;151.032;2023-12-20T03:40:59;100809.70;;;16.53;100.00
81162;BME280;70638;-33.792;151.032;2023-12-20T03:43:30;100808.44;;;16.61;100.00
81162;BME280;70638;-33.792;151.032;2023-12-20T03:46:02;100809.45;;;16.52;100.00
81162;BME280;70638;-33.792;151.032;2023-12-20T03:48:31;100805.70;;;16.51;100.00
81162;BME280;70638;-33.792;151.032;2023-12-20T03:51:02;100810.11;;;16.48;100.00
81162;BME280;70638;-33.792;151.032;2023-12-20T03:53:32;100810.02;;;16.48;100.00
81162;BME280;70638;-33.792;151.032;2023-12-20T03:56:03;100811.14;;;16.52;100.00
81162;BME280;70638;-33.792;151.032;2023-12-20T03:58:34;100816.67;;;16.61;100.00
81162;BME280;70638;-33.792;151.032;2023-12-20T04:01:09;100816.83;;;16.50;100.00
81162;BME280;70638;-33.792;151.032;2023-12-20T04:03:35;100816.31;;;16.56;100.00
81162;BME280;70638;-33.792;151.032;2023-12-20T04:06:19;100814.45;;;16.53;100.00
81162;BME280;70638;-33.792;151.032;2023-12-20T04:08:36;100814.38;;;16.52;100.00
81162;BME280;70638;-33.792;151.032;2023-12-20T04:11:06;100818.52;;;16.44;100.00
81162;BME280;70638;-33.792;151.032;2023-12-20T04:13:37;100819.55;;;16.47;100.00
81162;BME280;70638;-33.792;151.032;2023-12-20T04:16:07;100820.91;;;16.56;100.00
81162;BME280;70638;-33.792;151.032;2023-12-20T04:18:38;100819.02;;;16.54;100.00
81162;BME280;70638;-33.792;151.032;2023-12-20T04:21:09;100823.42;;;16.46;100.00
81162;BME280;70638;-33.792;151.032;2023-12-20T04:23:38;100823.75;;;16.43;100.00
81162;BME280;70638;-33.792;151.032;2023-12-20T04:26:13;100821.14;;;16.42;100.00
81162;BME280;70638;-33.792;151.032;2023-12-20T04:28:40;100817.70;;;16.31;100.00
81162;BME280;70638;-33.792;151.032;2023-12-20T04:31:11;100818.66;;;16.34;100.00
81162;BME280;70638;-33.792;151.032;2023-12-20T04:33:44;100824.33;;;16.36;100.00
81162;BME280;70638;-33.792;151.032;2023-12-20T04:36:12;100821.13;;;16.39;100.00
81162;BME280;70638;-33.792;151.032;2023-12-20T04:38:48;100817.48;;;16.42;100.00
81162;BME280;70638;-33.792;151.032;2023-12-20T04:41:13;100816.65;;;16.44;100.00
81162;BME280;70638;-33.792;151.032;2023-12-20T04:43:44;100823.86;;;16.41;100.00
81162;BME280;70638;-33.792;151.032;2023-12-20T04:46:14;100825.89;;;16.49;100.00
81162;BME280;70638;-33.792;151.032;2023-12-20T04:48:45;100823.19;;;16.44;100.00
81162;BME280;70638;-33.792;151.032;2023-12-20T04:51:16;100823.01;;;16.41;100.00
81162;BME280;70638;-33.792;151.032;2023-12-20T04:53:46;100823.96;;;16.53;100.00
81162;BME280;70638;-33.792;151.032;2023-12-20T04:56:17;100824.26;;;16.43;100.00
81162;BME280;70638;-33.792;151.032;2023-12-20T04:58:51;100821.41;;;16.51;100.00
81162;BME280;70638;-33.792;151.032;2023-12-20T05:01:19;100815.70;;;16.45;100.00
81162;BME280;70638;-33.792;151.032;2023-12-20T05:03:49;100814.83;;;16.38;100.00
81162;BME280;70638;-33.792;151.032;2023-12-20T05:06:20;100808.05;;;16.41;100.00
81162;BME280;70638;-33.792;151.032;2023-12-20T05:08:50;100814.06;;;16.38;100.00
81162;BME280;70638;-33.792;151.032;2023-12-20T05:11:21;100815.19;;;16.40;100.00
81162;BME280;70638;-33.792;151.032;2023-12-20T05:13:51;100813.66;;;16.46;100.00
81162;BME280;70638;-33.792;151.032;2023-12-20T05:16:22;100815.11;;;16.48;100.00
81162;BME280;70638;-33.792;151.032;2023-12-20T05:18:55;100812.17;;;16.30;100.00
81162;BME280;70638;-33.792;151.032;2023-12-20T05:21:23;100812.78;;;16.32;100.00
81162;BME280;70638;-33.792;151.032;2023-12-20T05:23:53;100812.84;;;16.21;100.00
81162;BME280;70638;-33.792;151.032;2023-12-20T05:26:24;100816.42;;;16.26;100.00
81162;BME280;70638;-33.792;151.032;2023-12-20T05:28:55;100818.78;;;16.17;100.00
81162;BME280;70638;-33.792;151.032;2023-12-20T05:31:31;100820.12;;;16.15;100.00
81162;BME280;70638;-33.792;151.032;2023-12-20T05:33:57;100819.70;;;16.19;100.00
81162;BME280;70638;-33.792;151.032;2023-12-20T05:36:27;100825.03;;;16.12;100.00
81162;BME280;70638;-33.792;151.032;2023-12-20T05:38:58;100822.41;;;16.13;100.00
81162;BME280;70638;-33.792;151.032;2023-12-20T05:41:29;100825.57;;;16.24;100.00
81162;BME280;70638;-33.792;151.032;2023-12-20T05:44:00;100826.78;;;16.05;100.00
81162;BME280;70638;-33.792;151.032;2023-12-20T05:46:30;100827.75;;;15.98;100.00
81162;BME280;70638;-33.792;151.032;2023-12-20T05:49:01;100822.11;;;16.01;100.00
81162;BME280;70638;-33.792;151.032;2023-12-20T05:51:38;100823.04;;;16.02;100.00
81162;BME280;70638;-33.792;151.032;2023-12-20T05:54:02;100828.41;;;16.07;100.00
81162;BME280;70638;-33.792;151.032;2023-12-20T05:56:37;100833.98;;;16.05;100.00
81162;BME280;70638;-33.792;151.032;2023-12-20T05:59:03;100827.14;;;16.10;100.00
81162;BME280;70638;-33.792;151.032;2023-12-20T06:01:34;100830.80;;;16.17;100.00
81162;BME280;70638;-33.792;151.032;2023-12-20T06:04:07;100823.97;;;15.98;100.00
81162;BME280;70638;-33.792;151.032;2023-12-20T06:06:44;100832.47;;;16.04;100.00
81162;BME280;70638;-33.792;151.032;2023-12-20T06:09:10;100827.16;;;15.97;100.00
81162;BME280;70638;-33.792;151.032;2023-12-20T06:11:40;100831.02;;;16.04;100.00
81162;BME280;70638;-33.792;151.032;2023-12-20T06:14:07;100832.47;;;16.04;100.00
81162;BME280;70638;-33.792;151.032;2023-12-20T06:16:37;100825.11;;;16.09;100.00
81162;BME280;70638;-33.792;151.032;2023-12-20T06:19:08;100821.90;;;16.12;100.00
81162;BME280;70638;-33.792;151.032;2023-12-20T06:21:39;100825.16;;;16.03;100.00
81162;BME280;70638;-33.792;151.032;2023-12-20T06:24:09;100821.14;;;15.94;100.00
81162;BME280;70638;-33.792;151.032;2023-12-20T06:26:40;100820.55;;;15.98;100.00
81162;BME280;70638;-33.792;151.032;2023-12-20T06:29:11;100822.94;;;15.96;100.00
81162;BME280;70638;-33.792;151.032;2023-12-20T06:31:46;100830.66;;;16.03;100.00
81162;BME280;70638;-33.792;151.032;2023-12-20T06:34:12;100831.58;;;16.01;100.00
81162;BME280;70638;-33.792;151.032;2023-12-20T06:36:43;100831.19;;;16.09;100.00
81162;BME280;70638;-33.792;151.032;2023-12-20T06:39:16;100833.99;;;16.04;100.00
81162;BME280;70638;-33.792;151.032;2023-12-20T06:41:45;100836.30;;;16.06;100.00
81162;BME280;70638;-33.792;151.032;2023-12-20T06:44:15;100841.70;;;16.09;100.00
81162;BME280;70638;-33.792;151.032;2023-12-20T06:46:49;100846.56;;;16.11;100.00
81162;BME280;70638;-33.792;151.032;2023-12-20T06:49:16;100843.87;;;15.94;100.00
81162;BME280;70638;-33.792;151.032;2023-12-20T06:51:47;100844.54;;;15.95;100.00
81162;BME280;70638;-33.792;151.032;2023-12-20T06:54:18;100848.80;;;15.85;100.00
81162;BME280;70638;-33.792;151.032;2023-12-20T06:56:49;100849.59;;;15.86;100.00
81162;BME280;70638;-33.792;151.032;2023-12-20T06:59:22;100856.11;;;15.87;100.00
81162;BME280;70638;-33.792;151.032;2023-12-20T07:01:50;100859.86;;;15.85;100.00
81162;BME280;70638;-33.792;151.032;2023-12-20T07:04:24;100868.66;;;15.84;100.00
81162;BME280;70638;-33.792;151.032;2023-12-20T07:06:50;100874.44;;;15.86;100.00
81162;BME280;70638;-33.792;151.032;2023-12-20T07:09:20;100871.37;;;15.84;100.00
81162;BME280;70638;-33.792;151.032;2023-12-20T07:11:51;100874.22;;;15.78;100.00
81162;BME280;70638;-33.792;151.032;2023-12-20T07:14:27;100879.23;;;15.81;100.00
81162;BME280;70638;-33.792;151.032;2023-12-20T07:17:03;100879.66;;;15.81;100.00
81162;BME280;70638;-33.792;151.032;2023-12-20T07:19:26;100884.49;;;15.81;100.00
81162;BME280;70638;-33.792;151.032;2023-12-20T07:21:58;100890.05;;;15.86;100.00
81162;BME280;70638;-33.792;151.032;2023-12-20T07:24:23;100886.97;;;15.83;100.00
81162;BME280;70638;-33.792;151.032;2023-12-20T07:27:01;100888.33;;;15.83;100.00
81162;BME280;70638;-33.792;151.032;2023-12-20T07:29:24;100888.14;;;15.80;100.00
81162;BME280;70638;-33.792;151.032;2023-12-20T07:31:56;100885.15;;;15.79;100.00
81162;BME280;70638;-33.792;151.032;2023-12-20T07:34:25;100884.45;;;15.76;100.00
81162;BME280;70638;-33.792;151.032;2023-12-20T07:36:56;100874.89;;;15.79;100.00
81162;BME280;70638;-33.792;151.032;2023-12-20T07:39:27;100873.66;;;15.83;100.00
81162;BME280;70638;-33.792;151.032;2023-12-20T07:42:02;100863.10;;;15.79;100.00
81162;BME280;70638;-33.792;151.032;2023-12-20T07:44:28;100869.06;;;15.80;100.00
81162;BME280;70638;-33.792;151.032;2023-12-20T07:46:59;100871.10;;;15.80;100.00
81162;BME280;70638;-33.792;151.032;2023-12-20T07:49:29;100870.08;;;15.81;100.00
81162;BME280;70638;-33.792;151.032;2023-12-20T07:51:59;100877.61;;;15.79;100.00
81162;BME280;70638;-33.792;151.032;2023-12-20T07:54:30;100882.53;;;15.82;100.00
81162;BME280;70638;-33.792;151.032;2023-12-20T07:57:01;100889.32;;;15.82;100.00
81162;BME280;70638;-33.792;151.032;2023-12-20T07:59:32;100897.89;;;15.82;100.00
81162;BME280;70638;-33.792;151.032;2023-12-20T08:02:02;100906.23;;;15.86;100.00
81162;BME280;70638;-33.792;151.032;2023-12-20T08:04:34;100914.38;;;15.87;100.00
81162;BME280;70638;-33.792;151.032;2023-12-20T08:07:04;100916.78;;;15.91;100.00
81162;BME280;70638;-33.792;151.032;2023-12-20T08:09:36;100924.83;;;15.88;100.00
81162;BME280;70638;-33.792;151.032;2023-12-20T08:12:05;100929.30;;;15.86;100.00
81162;BME280;70638;-33.792;151.032;2023-12-20T08:14:40;100933.16;;;15.91;100.00
81162;BME280;70638;-33.792;151.032;2023-12-20T08:17:06;100938.88;;;15.96;100.00
81162;BME280;70638;-33.792;151.032;2023-12-20T08:19:37;100946.98;;;15.96;100.00
81162;BME280;70638;-33.792;151.032;2023-12-20T08:22:07;100944.28;;;15.94;100.00
81162;BME280;70638;-33.792;151.032;2023-12-20T08:24:39;100941.49;;;15.97;100.00
81162;BME280;70638;-33.792;151.032;2023-12-20T08:27:07;100937.77;;;15.97;100.00
81162;BME280;70638;-33.792;151.032;2023-12-20T08:29:38;100926.58;;;15.96;100.00
81162;BME280;70638;-33.792;151.032;2023-12-20T08:32:08;100918.38;;;15.90;100.00
81162;BME280;70638;-33.792;151.032;2023-12-20T08:34:42;100921.25;;;15.90;100.00
81162;BME280;70638;-33.792;151.032;2023-12-20T08:37:09;100933.09;;;15.97;100.00
81162;BME280;70638;-33.792;151.032;2023-12-20T08:39:51;100943.95;;;15.97;100.00
81162;BME280;70638;-33.792;151.032;2023-12-20T08:42:10;100952.55;;;16.03;100.00
81162;BME280;70638;-33.792;151.032;2023-12-20T08:44:41;100962.28;;;15.97;100.00
81162;BME280;70638;-33.792;151.032;2023-12-20T08:47:17;100965.92;;;15.96;100.00
81162;BME280;70638;-33.792;151.032;2023-12-20T08:49:46;100976.84;;;15.95;100.00
81162;BME280;70638;-33.792;151.032;2023-12-20T08:52:12;100980.80;;;16.03;100.00
81162;BME280;70638;-33.792;151.032;2023-12-20T08:54:46;100982.25;;;16.15;100.00
81162;BME280;70638;-33.792;151.032;2023-12-20T08:57:13;100985.02;;;16.14;100.00
81162;BME280;70638;-33.792;151.032;2023-12-20T08:59:47;100986.41;;;16.06;100.00
81162;BME280;70638;-33.792;151.032;2023-12-20T09:02:15;101001.09;;;16.05;100.00
81162;BME280;70638;-33.792;151.032;2023-12-20T09:04:45;100992.57;;;16.14;100.00
81162;BME280;70638;-33.792;151.032;2023-12-20T09:07:26;100993.08;;;16.14;100.00
81162;BME280;70638;-33.792;151.032;2023-12-20T09:09:47;100992.77;;;16.16;100.00
81162;BME280;70638;-33.792;151.032;2023-12-20T09:12:20;100997.06;;;16.10;100.00
81162;BME280;70638;-33.792;151.032;2023-12-20T09:14:49;100994.75;;;16.08;100.00
81162;BME280;70638;-33.792;151.032;2023-12-20T09:17:19;101005.18;;;16.09;100.00
81162;BME280;70638;-33.792;151.032;2023-12-20T09:19:49;101001.45;;;16.07;100.00
81162;BME280;70638;-33.792;151.032;2023-12-20T09:22:20;101000.03;;;16.10;100.00
81162;BME280;70638;-33.792;151.032;2023-12-20T09:24:50;101008.36;;;16.13;100.00
81162;BME280;70638;-33.792;151.032;2023-12-20T09:27:21;101011.90;;;16.11;100.00
81162;BME280;70638;-33.792;151.032;2023-12-20T09:29:52;101013.11;;;16.13;100.00
81162;BME280;70638;-33.792;151.032;2023-12-20T09:32:23;101014.28;;;16.10;100.00
81162;BME280;70638;-33.792;151.032;2023-12-20T09:34:53;101005.56;;;16.12;100.00
81162;BME280;70638;-33.792;151.032;2023-12-20T09:37:27;101011.28;;;16.09;100.00
81162;BME280;70638;-33.792;151.032;2023-12-20T09:39:54;101014.81;;;16.04;100.00
81162;BME280;70638;-33.792;151.032;2023-12-20T09:42:29;101022.70;;;16.03;100.00
81162;BME280;70638;-33.792;151.032;2023-12-20T09:45:00;101028.62;;;16.10;100.00
81162;BME280;70638;-33.792;151.032;2023-12-20T09:47:26;101035.59;;;16.12;100.00
81162;BME280;70638;-33.792;151.032;2023-12-20T09:49:57;101036.05;;;16.09;100.00
81162;BME280;70638;-33.792;151.032;2023-12-20T09:52:27;101041.36;;;16.12;100.00
81162;BME280;70638;-33.792;151.032;2023-12-20T09:54:58;101043.85;;;16.19;100.00
81162;BME280;70638;-33.792;151.032;2023-12-20T09:57:28;101047.81;;;16.12;100.00
81162;BME280;70638;-33.792;151.032;2023-12-20T09:59:59;101043.36;;;16.08;100.00
81162;BME280;70638;-33.792;151.032;2023-12-20T10:02:38;101043.38;;;16.10;100.00
81162;BME280;70638;-33.792;151.032;2023-12-20T10:05:30;101042.81;;;16.03;100.00
81162;BME280;70638;-33.792;151.032;2023-12-20T10:07:41;101041.71;;;16.01;100.00
81162;BME280;70638;-33.792;151.032;2023-12-20T10:10:02;101044.78;;;16.05;100.00
81162;BME280;70638;-33.792;151.032;2023-12-20T10:12:36;101047.64;;;16.03;100.00
81162;BME280;70638;-33.792;151.032;2023-12-20T10:15:03;101046.80;;;16.02;100.00
81162;BME280;70638;-33.792;151.032;2023-12-20T10:17:33;101040.16;;;15.99;100.00
81162;BME280;70638;-33.792;151.032;2023-12-20T10:20:04;101038.92;;;16.05;100.00
81162;BME280;70638;-33.792;151.032;2023-12-20T10:22:37;101037.73;;;15.95;100.00
81162;BME280;70638;-33.792;151.032;2023-12-20T10:25:06;101030.70;;;15.95;100.00
81162;BME280;70638;-33.792;151.032;2023-12-20T10:27:41;101027.86;;;16.00;100.00
81162;BME280;70638;-33.792;151.032;2023-12-20T10:30:08;101024.80;;;16.00;100.00
81162;BME280;70638;-33.792;151.032;2023-12-20T10:32:36;101027.31;;;15.94;100.00
81162;BME280;70638;-33.792;151.032;2023-12-20T10:35:08;101029.95;;;15.93;100.00
81162;BME280;70638;-33.792;151.032;2023-12-20T10:37:38;101031.78;;;16.01;100.00
81162;BME280;70638;-33.792;151.032;2023-12-20T10:40:09;101035.39;;;16.07;100.00
81162;BME280;70638;-33.792;151.032;2023-12-20T10:42:43;101034.77;;;16.05;100.00
81162;BME280;70638;-33.792;151.032;2023-12-20T10:45:09;101026.14;;;16.07;100.00
81162;BME280;70638;-33.792;151.032;2023-12-20T10:47:47;101024.78;;;16.06;100.00
81162;BME280;70638;-33.792;151.032;2023-12-20T10:50:11;101025.44;;;16.06;100.00
81162;BME280;70638;-33.792;151.032;2023-12-20T10:52:44;101022.56;;;16.04;100.00
81162;BME280;70638;-33.792;151.032;2023-12-20T10:55:11;101020.44;;;16.05;100.00
81162;BME280;70638;-33.792;151.032;2023-12-20T10:57:42;101022.06;;;16.09;100.00
81162;BME280;70638;-33.792;151.032;2023-12-20T11:00:18;101020.06;;;16.13;100.00
81162;BME280;70638;-33.792;151.032;2023-12-20T11:02:44;101018.95;;;16.10;100.00
81162;BME280;70638;-33.792;151.032;2023-12-20T11:05:31;101011.16;;;16.12;100.00
81162;BME280;70638;-33.792;151.032;2023-12-20T11:08:07;101010.64;;;16.14;100.00
81162;BME280;70638;-33.792;151.032;2023-12-20T11:10:39;101011.77;;;16.16;100.00
81162;BME280;70638;-33.792;151.032;2023-12-20T11:12:58;101010.31;;;16.13;100.00
81162;BME280;70638;-33.792;151.032;2023-12-20T11:15:15;101009.05;;;16.15;100.00
81162;BME280;70638;-33.792;151.032;2023-12-20T11:17:55;101013.28;;;16.13;100.00
81162;BME280;70638;-33.792;151.032;2023-12-20T11:20:15;101009.04;;;16.12;100.00
81162;BME280;70638;-33.792;151.032;2023-12-20T11:25:15;101011.59;;;16.13;100.00
81162;BME280;70638;-33.792;151.032;2023-12-20T11:28:08;101011.90;;;16.11;100.00
81162;BME280;70638;-33.792;151.032;2023-12-20T11:30:16;101007.77;;;16.17;100.00
81162;BME280;70638;-33.792;151.032;2023-12-20T11:32:47;101004.78;;;16.23;100.00
81162;BME280;70638;-33.792;151.032;2023-12-20T11:35:18;101000.69;;;16.21;100.00
81162;BME280;70638;-33.792;151.032;2023-12-20T11:37:51;101003.40;;;16.22;100.00
81162;BME280;70638;-33.792;151.032;2023-12-20T11:40:19;101000.73;;;16.25;100.00
81162;BME280;70638;-33.792;151.032;2023-12-20T11:42:50;100995.54;;;16.27;100.00
81162;BME280;70638;-33.792;151.032;2023-12-20T11:45:24;100989.16;;;16.24;100.00
81162;BME280;70638;-33.792;151.032;2023-12-20T11:47:52;100987.17;;;16.19;100.00
81162;BME280;70638;-33.792;151.032;2023-12-20T11:50:22;100990.66;;;16.18;100.00
81162;BME280;70638;-33.792;151.032;2023-12-20T11:52:52;100984.77;;;16.26;100.00
81162;BME280;70638;-33.792;151.032;2023-12-20T11:55:22;100982.38;;;16.25;100.00
81162;BME280;70638;-33.792;151.032;2023-12-20T11:57:52;100980.61;;;16.26;100.00
81162;BME280;70638;-33.792;151.032;2023-12-20T12:00:25;100983.16;;;16.27;100.00
81162;BME280;70638;-33.792;151.032;2023-12-20T12:02:59;100983.17;;;16.30;100.00
81162;BME280;70638;-33.792;151.032;2023-12-20T12:05:31;100989.53;;;16.30;100.00
81162;BME280;70638;-33.792;151.032;2023-12-20T12:08:02;100990.34;;;16.25;100.00
81162;BME280;70638;-33.792;151.032;2023-12-20T12:10:30;100989.64;;;16.18;100.00
81162;BME280;70638;-33.792;151.032;2023-12-20T12:12:55;100987.96;;;16.21;100.00
81162;BME280;70638;-33.792;151.032;2023-12-20T12:15:25;100982.02;;;16.20;100.00
81162;BME280;70638;-33.792;151.032;2023-12-20T12:17:56;100980.16;;;16.21;100.00
81162;BME280;70638;-33.792;151.032;2023-12-20T12:20:26;100969.47;;;16.20;100.00
81162;BME280;70638;-33.792;151.032;2023-12-20T12:23:04;100965.07;;;16.24;100.00
81162;BME280;70638;-33.792;151.032;2023-12-20T12:25:32;100962.36;;;16.23;100.00
81162;BME280;70638;-33.792;151.032;2023-12-20T12:28:01;100959.72;;;16.24;100.00